Paradise, Canada
Current Conditions -  °F | °C
As of 1:00 PM on Wednesday 22 Oct 2014 (Local Time) from CYQX Reporting Station
Broken Clouds Broken Clouds  
Wind Chill: 46°   Ceiling: 21000
Heat Index: 46°   Visibility: 20mi
Dew Point: 34°   Wind: 3mph
Humidity: 62%   Direction: 320°NW
Pressure: 30.45"   Gusts: NA
Location:  49.37°N, 55.33°W
Report Text: CYQX 221500Z 32003KT 300V010 20SM FEW038 BKN210 08/01 A3045 RMK SC2CC5 CU/ CI TR SLP315
Loading
Personal Weather Stations






























Interactive Weather Map
Tropical Storm Tracking
New forecast layout! Learn more

10-Day Weather Forecast

Advertisements
Track Severe Weather on mobile